| time (UTC) | temp F | wind direction | speed knots | gust knots | rain 1hr in | rain 24hr in | rain mn in | humidity % | barometer mb |
| 20260506135737 | 61 | 171 | 0.0 | 0.0 | 0.00 | 0.00 | 0.00 | 79 | 1020.3 |
| 20260506135233 | 61 | 240 | 0.0 | 0.0 | 0.00 | 0.00 | 0.00 | 79 | 1020.3 |
| 20260506134732 | 61 | 240 | 0.0 | 0.0 | 0.00 | 0.00 | 0.00 | 79 | 1020.3 |
| 20260506134232 | 61 | 240 | 0.0 | 0.0 | 0.00 | 0.00 | 0.00 | 79 | 1020.1 |
| 20260506133726 | 61 | 240 | 0.0 | 0.0 | 0.00 | 0.00 | 0.00 | 79 | 1020.1 |
| 20260506133219 | 61 | 240 | 0.0 | 0.0 | 0.00 | 0.00 | 0.00 | 79 | 1020.1 |
| 20260506132714 | 61 | 240 | 0.0 | 0.0 | 0.00 | 0.00 | 0.00 | 79 | 1020.1 |
| 20260506131715 | 61 | 240 | 0.0 | 0.0 | 0.00 | 0.00 | 0.00 | 79 | 1020.0 |
| 20260506131215 | 61 | 240 | 0.0 | 0.0 | 0.00 | 0.00 | 0.00 | 79 | 1019.9 |
| 20260506130714 | 61 | 240 | 0.0 | 0.0 | 0.00 | 0.00 | 0.00 | 79 | 1019.9 |
| 20260506130214 | 61 | 240 | 0.0 | 0.0 | 0.00 | 0.00 | 0.00 | 78 | 1019.8 |
| 20260506125210 | 61 | 240 | 0.0 | 0.0 | 0.00 | 0.00 | 0.00 | 78 | 1019.8 |
| 20260506124709 | 61 | 241 | 0.0 | 0.0 | 0.00 | 0.00 | 0.00 | 78 | 1019.6 |
| 20260506124205 | 61 | 241 | 0.0 | 0.0 | 0.00 | 0.00 | 0.00 | 78 | 1019.6 |
| 20260506123703 | 61 | 241 | 0.0 | 0.0 | 0.00 | 0.00 | 0.00 | 78 | 1019.6 |
| 20260506123202 | 61 | 241 | 0.0 | 0.0 | 0.00 | 0.00 | 0.00 | 78 | 1019.6 |
| 20260506122701 | 61 | 241 | 0.0 | 2.6 | 0.00 | 0.00 | 0.00 | 78 | 1019.5 |
| 20260506122159 | 61 | 241 | 1.7 | 3.5 | 0.00 | 0.00 | 0.00 | 78 | 1019.6 |
| 20260506121657 | 61 | 241 | 2.6 | 3.5 | 0.00 | 0.00 | 0.00 | 77 | 1019.6 |
| 20260506121155 | 61 | 241 | 2.6 | 3.5 | 0.00 | 0.00 | 0.00 | 77 | 1019.5 |
| 20260506120655 | 61 | 241 | 2.6 | 3.5 | 0.00 | 0.00 | 0.00 | 77 | 1019.6 |
| 20260506120154 | 61 | 241 | 2.6 | 4.3 | 0.00 | 0.00 | 0.00 | 77 | 1019.5 |
| 20260506115653 | 61 | 241 | 0.9 | 4.3 | 0.00 | 0.00 | 0.00 | 76 | 1019.5 |
| 20260506115154 | 61 | 128 | 0.0 | 0.0 | 0.00 | 0.00 | 0.00 | 76 | 1019.4 |
| 20260506114654 | 61 | 113 | 0.0 | 0.0 | 0.00 | 0.00 | 0.00 | 75 | 1019.4 |
| 20260506114148 | 61 | 113 | 0.0 | 0.0 | 0.00 | 0.00 | 0.00 | 75 | 1019.3 |
| 20260506113643 | 61 | 113 | 0.0 | 0.0 | 0.00 | 0.00 | 0.00 | 75 | 1019.3 |
| 20260506113136 | 61 | 113 | 0.0 | 0.0 | 0.00 | 0.00 | 0.00 | 75 | 1019.2 |
| 20260506112630 | 61 | 113 | 0.0 | 0.0 | 0.00 | 0.00 | 0.00 | 75 | 1019.2 |
| 20260506112123 | 61 | 113 | 0.0 | 0.0 | 0.00 | 0.00 | 0.00 | 75 | 1019.2 |
| 20260506111619 | 62 | 113 | 0.0 | 0.0 | 0.00 | 0.00 | 0.00 | 75 | 1019.0 |
| 20260506111112 | 62 | 113 | 0.0 | 0.0 | 0.00 | 0.00 | 0.00 | 75 | 1019.0 |
| 20260506110606 | 62 | 113 | 0.0 | 0.0 | 0.00 | 0.00 | 0.00 | 75 | 1019.0 |
| 20260506105554 | 62 | 113 | 0.0 | 0.0 | 0.00 | 0.00 | 0.00 | 75 | 1018.9 |
| 20260506104543 | 62 | 113 | 0.0 | 0.0 | 0.00 | 0.00 | 0.00 | 75 | 1019.0 |
| 20260506103023 | 62 | 139 | 0.0 | 0.0 | 0.00 | 0.00 | 0.00 | 75 | 1018.9 |
| 20260506102517 | 62 | 139 | 0.0 | 0.0 | 0.00 | 0.00 | 0.00 | 75 | 1018.9 |
| 20260506101506 | 62 | 139 | 0.0 | 0.0 | 0.00 | 0.00 | 0.00 | 75 | 1018.8 |
| 20260506100959 | 62 | 139 | 0.0 | 0.0 | 0.00 | 0.00 | 0.00 | 75 | 1018.9 |
| 20260506100454 | 62 | 139 | 0.0 | 0.0 | 0.00 | 0.00 | 0.00 | 75 | 1018.8 |
| 20260506094935 | 62 | 139 | 0.0 | 0.0 | 0.00 | 0.00 | 0.00 | 75 | 1018.8 |
| 20260506093924 | 62 | 139 | 0.0 | 0.0 | 0.00 | 0.00 | 0.00 | 75 | 1018.9 |
| 20260506093418 | 62 | 139 | 0.0 | 0.0 | 0.00 | 0.00 | 0.00 | 75 | 1018.8 |
| 20260506092912 | 62 | 139 | 0.0 | 0.0 | 0.00 | 0.00 | 0.00 | 75 | 1018.8 |
| 20260506092406 | 62 | 139 | 0.0 | 0.0 | 0.00 | 0.00 | 0.00 | 75 | 1018.8 |
| 20260506091900 | 62 | 139 | 0.0 | 0.0 | 0.00 | 0.00 | 0.00 | 75 | 1018.8 |
| 20260506091354 | 62 | 139 | 0.0 | 0.0 | 0.00 | 0.00 | 0.00 | 75 | 1018.7 |
| 20260506090848 | 62 | 139 | 0.0 | 0.0 | 0.00 | 0.00 | 0.00 | 75 | 1018.6 |
| 20260506090342 | 62 | 139 | 0.0 | 0.0 | 0.00 | 0.00 | 0.00 | 75 | 1018.7 |
| 20260506085836 | 62 | 139 | 0.0 | 0.0 | 0.00 | 0.00 | 0.00 | 74 | 1018.7 |
| 20260506084318 | 62 | 139 | 0.0 | 0.0 | 0.00 | 0.00 | 0.00 | 74 | 1018.7 |
| 20260506083313 | 62 | 139 | 0.0 | 0.0 | 0.00 | 0.00 | 0.00 | 74 | 1018.7 |
| 20260506082813 | 62 | 139 | 0.0 | 0.0 | 0.00 | 0.00 | 0.00 | 74 | 1018.7 |
| 20260506082314 | 62 | 139 | 0.0 | 0.0 | 0.00 | 0.00 | 0.00 | 74 | 1018.8 |
| 20260506081814 | 62 | 139 | 0.0 | 0.0 | 0.00 | 0.00 | 0.00 | 73 | 1018.7 |
| 20260506081312 | 62 | 139 | 0.0 | 0.0 | 0.00 | 0.00 | 0.00 | 73 | 1018.7 |
| 20260506080813 | 62 | 139 | 0.0 | 0.0 | 0.00 | 0.00 | 0.00 | 73 | 1018.7 |
| 20260506073303 | 63 | 139 | 0.0 | 0.0 | 0.00 | 0.00 | 0.00 | 72 | 1018.5 |
| 20260506072802 | 63 | 139 | 0.0 | 0.0 | 0.00 | 0.00 | 0.00 | 72 | 1018.5 |
| 20260506072300 | 63 | 139 | 0.0 | 0.0 | 0.00 | 0.01 | 0.00 | 72 | 1018.5 |
| 20260506071756 | 63 | 139 | 0.0 | 0.0 | 0.00 | 0.03 | 0.00 | 71 | 1018.4 |
| 20260506071256 | 63 | 139 | 0.0 | 0.0 | 0.00 | 0.04 | 0.00 | 71 | 1018.4 |
| 20260506070753 | 63 | 139 | 0.0 | 0.0 | 0.00 | 0.04 | 0.00 | 71 | 1018.3 |
| 20260506070251 | 63 | 139 | 0.0 | 0.0 | 0.00 | 0.04 | 0.00 | 71 | 1018.3 |
| 20260506062211 | 63 | 139 | 1.7 | 2.6 | 0.00 | 0.06 | 0.04 | 69 | 1018.0 |
| 20260506061159 | 63 | 139 | 0.9 | 3.5 | 0.00 | 0.07 | 0.04 | 69 | 1017.9 |
| 20260506060653 | 63 | 139 | 1.7 | 3.5 | 0.00 | 0.07 | 0.04 | 69 | 1017.8 |
| 20260506060147 | 63 | 139 | 1.7 | 3.5 | 0.00 | 0.08 | 0.04 | 69 | 1017.7 |
| 20260506045023 | 64 | 76 | 0.0 | 0.0 | 0.00 | 0.08 | 0.04 | 68 | 1017.1 |
| 20260506044517 | 64 | 76 | 0.0 | 0.0 | 0.00 | 0.08 | 0.04 | 68 | 1017.1 |
| 20260506044017 | 64 | 76 | 0.0 | 0.0 | 0.00 | 0.08 | 0.04 | 68 | 1017.0 |
| 20260506043518 | 64 | 76 | 0.0 | 0.0 | 0.00 | 0.08 | 0.04 | 68 | 1016.9 |
| 20260506043016 | 64 | 76 | 0.0 | 0.0 | 0.00 | 0.09 | 0.04 | 68 | 1016.9 |
| 20260506042011 | 64 | 76 | 0.0 | 0.0 | 0.00 | 0.09 | 0.04 | 68 | 1016.8 |
| 20260506041510 | 64 | 76 | 0.0 | 0.0 | 0.00 | 0.09 | 0.04 | 68 | 1016.7 |
| 20260506041007 | 64 | 76 | 0.0 | 0.0 | 0.00 | 0.09 | 0.04 | 68 | 1016.6 |
| 20260506040505 | 64 | 76 | 0.0 | 0.0 | 0.00 | 0.09 | 0.04 | 68 | 1016.5 |
| 20260506040005 | 64 | 76 | 0.9 | 2.6 | 0.00 | 0.10 | 0.04 | 68 | 1016.6 |
| 20260506035003 | 64 | 76 | 1.7 | 2.6 | 0.00 | 0.12 | 0.04 | 68 | 1016.3 |
| 20260506034502 | 64 | 78 | 0.9 | 2.6 | 0.00 | 0.12 | 0.04 | 68 | 1016.3 |
| 20260506034001 | 64 | 78 | 1.7 | 5.2 | 0.00 | 0.12 | 0.04 | 68 | 1016.2 |
| 20260506032959 | 64 | 80 | 3.5 | 6.1 | 0.00 | 0.12 | 0.04 | 68 | 1015.9 |
| 20260506032458 | 64 | 100 | 3.5 | 6.1 | 0.00 | 0.12 | 0.04 | 68 | 1015.8 |
| 20260506031958 | 64 | 88 | 3.5 | 6.1 | 0.00 | 0.12 | 0.04 | 67 | 1015.8 |
| 20260506031457 | 64 | 93 | 3.5 | 6.1 | 0.00 | 0.12 | 0.04 | 67 | 1015.7 |
| 20260506030956 | 64 | 97 | 3.5 | 6.1 | 0.00 | 0.12 | 0.04 | 67 | 1015.7 |
| 20260506025950 | 64 | 96 | 3.5 | 6.1 | 0.00 | 0.12 | 0.04 | 67 | 1015.6 |
| 20260506024941 | 64 | 105 | 3.5 | 7.0 | 0.00 | 0.12 | 0.04 | 66 | 1015.5 |
| 20260506023941 | 64 | 103 | 4.3 | 7.8 | 0.00 | 0.12 | 0.04 | 66 | 1015.4 |
| 20260506023441 | 64 | 116 | 4.3 | 7.8 | 0.00 | 0.12 | 0.04 | 65 | 1015.4 |
| 20260506022941 | 64 | 118 | 3.5 | 7.0 | 0.00 | 0.12 | 0.04 | 65 | 1015.3 |
| 20260506022440 | 65 | 171 | 4.3 | 7.0 | 0.00 | 0.12 | 0.04 | 65 | 1015.2 |
| 20260506021938 | 65 | 140 | 4.3 | 7.0 | 0.00 | 0.12 | 0.04 | 65 | 1015.2 |
| 20260506021438 | 65 | 148 | 4.3 | 7.0 | 0.00 | 0.12 | 0.04 | 65 | 1015.2 |
| 20260506020939 | 65 | 139 | 4.3 | 7.0 | 0.00 | 0.12 | 0.04 | 65 | 1015.1 |
| 20260506020438 | 65 | 141 | 4.3 | 7.0 | 0.00 | 0.12 | 0.04 | 65 | 1015.1 |
| 20260506015939 | 65 | 136 | 3.5 | 7.0 | 0.00 | 0.12 | 0.04 | 64 | 1015.2 |
| 20260506015440 | 65 | 152 | 4.3 | 7.0 | 0.00 | 0.12 | 0.04 | 64 | 1015.1 |
| 20260506014935 | 65 | 148 | 4.3 | 7.8 | 0.00 | 0.12 | 0.04 | 64 | 1015.1 |
| 20260506014436 | 65 | 135 | 3.5 | 7.8 | 0.00 | 0.12 | 0.04 | 63 | 1015.1 |
| 20260506013936 | 65 | 157 | 3.5 | 6.1 | 0.00 | 0.12 | 0.04 | 64 | 1015.0 |
| 20260506013436 | 65 | 145 | 4.3 | 7.8 | 0.00 | 0.12 | 0.04 | 63 | 1015.0 |
| 20260506012935 | 65 | 156 | 4.3 | 7.8 | 0.00 | 0.12 | 0.04 | 63 | 1015.0 |
| 20260506012435 | 66 | 137 | 4.3 | 7.0 | 0.00 | 0.12 | 0.04 | 64 | 1015.0 |
| 20260506011936 | 65 | 165 | 4.3 | 8.7 | 0.00 | 0.12 | 0.04 | 63 | 1014.9 |
| 20260506011435 | 66 | 134 | 5.2 | 8.7 | 0.00 | 0.12 | 0.04 | 63 | 1014.9 |
| 20260506005936 | 66 | 142 | 6.1 | 8.7 | 0.00 | 0.12 | 0.04 | 63 | 1014.7 |
| 20260506005435 | 66 | 132 | 5.2 | 8.7 | 0.00 | 0.12 | 0.04 | 62 | 1014.6 |
| 20260506004935 | 66 | 158 | 5.2 | 7.8 | 0.00 | 0.12 | 0.04 | 62 | 1014.6 |
| 20260506003936 | 66 | 157 | 6.1 | 8.7 | 0.00 | 0.12 | 0.04 | 61 | 1014.7 |
| 20260506003435 | 66 | 153 | 6.1 | 8.7 | 0.00 | 0.12 | 0.04 | 61 | 1014.8 |
| 20260506002935 | 66 | 157 | 6.1 | 8.7 | 0.00 | 0.12 | 0.04 | 61 | 1014.7 |
| 20260506002434 | 66 | 129 | 5.2 | 8.7 | 0.00 | 0.12 | 0.04 | 60 | 1014.8 |
| 20260506001933 | 66 | 159 | 6.1 | 9.6 | 0.00 | 0.12 | 0.04 | 60 | 1014.7 |
| 20260506000928 | 67 | 138 | 4.3 | 7.8 | 0.00 | 0.12 | 0.04 | 60 | 1014.5 |
| 20260506000430 | 66 | 144 | 5.2 | 7.8 | 0.00 | 0.12 | 0.04 | 61 | 1014.5 |
| 20260505235930 | 66 | 123 | 5.2 | 8.7 | 0.00 | 0.12 | 0.04 | 60 | 1014.5 |
| 20260505235429 | 67 | 133 | 4.3 | 8.7 | 0.00 | 0.12 | 0.04 | 60 | 1014.5 |
| 20260505234428 | 67 | 141 | 5.2 | 9.6 | 0.00 | 0.12 | 0.04 | 61 | 1014.5 |
| 20260505233928 | 66 | 158 | 6.1 | 9.6 | 0.00 | 0.12 | 0.04 | 61 | 1014.4 |
| 20260505233424 | 67 | 110 | 7.0 | 9.6 | 0.00 | 0.12 | 0.04 | 60 | 1014.5 |
| 20260505232422 | 67 | 143 | 6.1 | 8.7 | 0.00 | 0.12 | 0.04 | 61 | 1014.4 |
| 20260505231922 | 67 | 113 | 5.2 | 8.7 | 0.00 | 0.12 | 0.04 | 60 | 1014.5 |
| 20260505231423 | 67 | 155 | 5.2 | 9.6 | 0.00 | 0.12 | 0.04 | 60 | 1014.5 |
| 20260505230922 | 67 | 135 | 6.1 | 9.6 | 0.00 | 0.12 | 0.04 | 60 | 1014.7 |
| 20260505230420 | 67 | 130 | 5.2 | 8.7 | 0.00 | 0.12 | 0.04 | 60 | 1014.6 |
| 20260505225918 | 67 | 118 | 5.2 | 8.7 | 0.00 | 0.12 | 0.04 | 60 | 1014.6 |
| 20260505224921 | 67 | 114 | 6.1 | 8.7 | 0.00 | 0.12 | 0.04 | 59 | 1014.7 |
| 20260505224420 | 67 | 102 | 5.2 | 8.7 | 0.00 | 0.12 | 0.04 | 59 | 1014.7 |
| 20260505223913 | 67 | 121 | 4.3 | 7.8 | 0.00 | 0.12 | 0.04 | 58 | 1014.7 |
| 20260505222900 | 68 | 175 | 3.5 | 6.1 | 0.00 | 0.12 | 0.04 | 58 | 1014.8 |
| 20260505222354 | 67 | 133 | 3.5 | 6.1 | 0.00 | 0.12 | 0.04 | 58 | 1014.9 |
| 20260505221849 | 67 | 184 | 3.5 | 7.8 | 0.00 | 0.12 | 0.04 | 58 | 1014.9 |
| 20260505221342 | 68 | 103 | 3.5 | 7.8 | 0.00 | 0.12 | 0.04 | 57 | 1014.9 |
| 20260505220836 | 67 | 119 | 2.6 | 7.0 | 0.00 | 0.12 | 0.04 | 57 | 1015.0 |
| 20260505220330 | 67 | 171 | 1.7 | 7.0 | 0.00 | 0.12 | 0.04 | 58 | 1015.1 |
| 20260505215824 | 67 | 267 | 1.7 | 5.2 | 0.00 | 0.12 | 0.04 | 59 | 1015.1 |
| 20260505214812 | 67 | 140 | 2.6 | 7.8 | 0.00 | 0.12 | 0.04 | 59 | 1015.1 |
| 20260505214306 | 67 | 179 | 3.5 | 7.8 | 0.00 | 0.12 | 0.04 | 59 | 1015.0 |
| 20260505213800 | 67 | 211 | 2.6 | 7.8 | 0.00 | 0.12 | 0.04 | 58 | 1015.1 |
| 20260505213254 | 67 | 207 | 2.6 | 6.1 | 0.00 | 0.12 | 0.04 | 59 | 1015.1 |
| 20260505211737 | 67 | 202 | 3.5 | 7.0 | 0.00 | 0.12 | 0.04 | 60 | 1015.3 |
| 20260505210219 | 67 | 200 | 4.3 | 8.7 | 0.00 | 0.12 | 0.04 | 58 | 1015.3 |
| 20260505205207 | 67 | 218 | 3.5 | 7.0 | 0.00 | 0.12 | 0.04 | 59 | 1015.3 |
| 20260505204154 | 67 | 221 | 4.3 | 7.0 | 0.00 | 0.12 | 0.04 | 59 | 1015.3 |
| 20260505203648 | 67 | 176 | 4.3 | 7.0 | 0.00 | 0.12 | 0.04 | 58 | 1015.4 |
| 20260505203142 | 67 | 198 | 2.6 | 7.0 | 0.00 | 0.12 | 0.04 | 59 | 1015.3 |
| 20260505202636 | 67 | 61 | 2.6 | 7.0 | 0.00 | 0.12 | 0.04 | 61 | 1015.4 |
| 20260505202130 | 66 | 98 | 1.7 | 6.1 | 0.00 | 0.12 | 0.04 | 63 | 1015.5 |
| 20260505200612 | 64 | 227 | 1.7 | 5.2 | 0.00 | 0.12 | 0.04 | 64 | 1015.7 |
| 20260505200107 | 64 | 238 | 2.6 | 6.1 | 0.00 | 0.12 | 0.04 | 64 | 1015.6 |
| 20260505195600 | 64 | 228 | 2.6 | 6.1 | 0.00 | 0.12 | 0.04 | 65 | 1015.7 |
| 20260505195054 | 64 | 254 | 2.6 | 6.1 | 0.00 | 0.12 | 0.04 | 64 | 1015.7 |
| 20260505194549 | 64 | 265 | 2.6 | 7.8 | 0.00 | 0.12 | 0.04 | 64 | 1015.7 |
| 20260505193030 | 63 | 228 | 3.5 | 8.7 | 0.00 | 0.12 | 0.04 | 66 | 1015.7 |
| 20260505192018 | 64 | 253 | 2.6 | 6.1 | 0.00 | 0.12 | 0.04 | 67 | 1015.8 |
| 20260505191512 | 63 | 312 | 2.6 | 5.2 | 0.00 | 0.12 | 0.04 | 67 | 1015.8 |
| 20260505191007 | 63 | 316 | 2.6 | 6.1 | 0.00 | 0.12 | 0.04 | 67 | 1015.9 |
| 20260505190500 | 62 | 259 | 2.6 | 6.1 | 0.00 | 0.12 | 0.04 | 67 | 1015.9 |
| 20260505185955 | 62 | 236 | 1.7 | 4.3 | 0.00 | 0.12 | 0.04 | 68 | 1015.8 |
| 20260505185449 | 61 | 174 | 2.6 | 5.2 | 0.00 | 0.12 | 0.04 | 70 | 1015.8 |
| 20260505184942 | 60 | 190 | 2.6 | 5.2 | 0.00 | 0.12 | 0.04 | 73 | 1015.8 |
| 20260505184436 | 60 | 210 | 2.6 | 4.3 | 0.00 | 0.12 | 0.04 | 74 | 1015.9 |
| 20260505183930 | 60 | 200 | 2.6 | 4.3 | 0.00 | 0.12 | 0.04 | 74 | 1015.9 |
| 20260505183424 | 60 | 259 | 1.7 | 3.5 | 0.00 | 0.12 | 0.04 | 75 | 1015.9 |
| 20260505182919 | 59 | 355 | 1.7 | 3.5 | 0.00 | 0.12 | 0.04 | 76 | 1015.9 |
| 20260505182412 | 59 | 355 | 0.9 | 2.6 | 0.00 | 0.12 | 0.04 | 76 | 1015.9 |
| 20260505181906 | 59 | 355 | 1.7 | 4.3 | 0.00 | 0.12 | 0.04 | 76 | 1016.0 |
| 20260505181401 | 59 | 351 | 2.6 | 4.3 | 0.00 | 0.12 | 0.04 | 77 | 1016.0 |
| 20260505180349 | 59 | 202 | 1.7 | 3.5 | 0.00 | 0.12 | 0.04 | 78 | 1016.1 |
| 20260505175844 | 59 | 194 | 0.9 | 3.5 | 0.00 | 0.12 | 0.04 | 79 | 1016.0 |
| 20260505174844 | 58 | 179 | 1.7 | 4.3 | 0.00 | 0.12 | 0.04 | 80 | 1016.0 |
| 20260505174345 | 58 | 174 | 0.9 | 4.3 | 0.00 | 0.12 | 0.04 | 81 | 1016.0 |
| 20260505173843 | 58 | 178 | 1.7 | 2.6 | 0.00 | 0.12 | 0.04 | 81 | 1015.9 |
| 20260505173344 | 58 | 178 | 1.7 | 4.3 | 0.00 | 0.13 | 0.04 | 82 | 1015.9 |
| 20260505172842 | 57 | 186 | 0.9 | 4.3 | 0.00 | 0.13 | 0.04 | 83 | 1015.9 |
| 20260505172343 | 57 | 236 | 1.7 | 4.3 | 0.00 | 0.13 | 0.04 | 83 | 1015.8 |
| 20260505171843 | 57 | 236 | 1.7 | 4.3 | 0.00 | 0.13 | 0.04 | 83 | 1015.9 |
| 20260505171340 | 56 | 229 | 1.7 | 6.1 | 0.00 | 0.13 | 0.04 | 83 | 1015.8 |
| 20260505170841 | 56 | 227 | 2.6 | 6.1 | 0.00 | 0.13 | 0.04 | 83 | 1015.8 |
| 20260505165340 | 56 | 211 | 1.7 | 3.5 | 0.00 | 0.13 | 0.04 | 84 | 1016.0 |
| 20260505164840 | 56 | 211 | 1.7 | 3.5 | 0.00 | 0.13 | 0.04 | 84 | 1015.9 |
| 20260505164340 | 56 | 211 | 1.7 | 3.5 | 0.00 | 0.13 | 0.04 | 84 | 1015.9 |
| 20260505163841 | 56 | 211 | 1.7 | 4.3 | 0.00 | 0.13 | 0.04 | 84 | 1015.9 |
| 20260505162840 | 56 | 211 | 1.7 | 3.5 | 0.00 | 0.14 | 0.04 | 84 | 1015.9 |
| 20260505161839 | 55 | 199 | 1.7 | 3.5 | 0.00 | 0.14 | 0.04 | 84 | 1015.8 |
| 20260505161339 | 55 | 199 | 1.7 | 3.5 | 0.00 | 0.14 | 0.04 | 84 | 1015.7 |
| 20260505160841 | 55 | 199 | 1.7 | 3.5 | 0.00 | 0.14 | 0.04 | 84 | 1015.7 |
| 20260505160341 | 55 | 199 | 0.9 | 3.5 | 0.00 | 0.14 | 0.04 | 84 | 1015.7 |
| 20260505153337 | 55 | 199 | 1.7 | 3.5 | 0.00 | 0.14 | 0.04 | 85 | 1015.5 |
| 20260505152840 | 55 | 199 | 1.7 | 3.5 | 0.00 | 0.14 | 0.04 | 85 | 1015.5 |
| 20260505152332 | 55 | 176 | 0.9 | 2.6 | 0.00 | 0.14 | 0.04 | 85 | 1015.4 |
| 20260505151833 | 55 | 174 | 0.9 | 2.6 | 0.00 | 0.14 | 0.04 | 85 | 1015.3 |
| 20260505150827 | 55 | 174 | 0.0 | 1.7 | 0.00 | 0.14 | 0.04 | 85 | 1015.2 |
| 20260505140309 | 54 | 164 | 0.0 | 1.7 | 0.00 | 0.14 | 0.04 | 85 | 1014.6 |